sensor_id;sensor_type;location;lat;lon;timestamp;P1;durP1;ratioP1;P2;durP2;ratioP2
69126;SDS011;56688;50.234;19.292;2022-11-14T00:01:51;48.90;;;21.20;;
69126;SDS011;56688;50.234;19.292;2022-11-14T00:04:34;43.50;;;20.90;;
69126;SDS011;56688;50.234;19.292;2022-11-14T00:07:16;49.90;;;21.40;;
69126;SDS011;56688;50.234;19.292;2022-11-14T00:09:58;57.90;;;23.80;;
69126;SDS011;56688;50.234;19.292;2022-11-14T00:12:40;50.10;;;22.80;;
69126;SDS011;56688;50.234;19.292;2022-11-14T00:15:23;53.00;;;24.70;;
69126;SDS011;56688;50.234;19.292;2022-11-14T00:18:05;52.80;;;24.50;;
69126;SDS011;56688;50.234;19.292;2022-11-14T00:20:49;53.30;;;25.00;;
69126;SDS011;56688;50.234;19.292;2022-11-14T00:23:32;63.60;;;24.60;;
69126;SDS011;56688;50.234;19.292;2022-11-14T00:26:14;54.30;;;24.60;;
69126;SDS011;56688;50.234;19.292;2022-11-14T00:28:56;50.60;;;22.90;;
69126;SDS011;56688;50.234;19.292;2022-11-14T00:31:39;53.00;;;25.10;;
69126;SDS011;56688;50.234;19.292;2022-11-14T00:34:21;47.90;;;21.80;;
69126;SDS011;56688;50.234;19.292;2022-11-14T00:37:03;49.60;;;24.10;;
69126;SDS011;56688;50.234;19.292;2022-11-14T00:39:45;49.20;;;23.00;;
69126;SDS011;56688;50.234;19.292;2022-11-14T00:42:28;51.60;;;23.50;;
69126;SDS011;56688;50.234;19.292;2022-11-14T00:45:10;55.70;;;23.90;;
69126;SDS011;56688;50.234;19.292;2022-11-14T00:47:52;55.80;;;24.00;;
69126;SDS011;56688;50.234;19.292;2022-11-14T00:50:35;58.80;;;24.80;;
69126;SDS011;56688;50.234;19.292;2022-11-14T00:53:19;51.50;;;24.10;;
69126;SDS011;56688;50.234;19.292;2022-11-14T00:56:01;48.90;;;22.70;;
69126;SDS011;56688;50.234;19.292;2022-11-14T00:58:44;48.80;;;22.00;;
69126;SDS011;56688;50.234;19.292;2022-11-14T01:01:27;46.40;;;21.00;;
69126;SDS011;56688;50.234;19.292;2022-11-14T01:04:09;47.10;;;21.70;;
69126;SDS011;56688;50.234;19.292;2022-11-14T01:06:51;50.30;;;22.90;;
69126;SDS011;56688;50.234;19.292;2022-11-14T01:09:33;41.20;;;19.40;;
69126;SDS011;56688;50.234;19.292;2022-11-14T01:12:16;43.10;;;21.00;;
69126;SDS011;56688;50.234;19.292;2022-11-14T01:14:58;42.40;;;20.50;;
69126;SDS011;56688;50.234;19.292;2022-11-14T01:17:40;46.10;;;21.10;;
69126;SDS011;56688;50.234;19.292;2022-11-14T01:20:23;45.30;;;20.90;;
69126;SDS011;56688;50.234;19.292;2022-11-14T01:23:06;42.70;;;19.00;;
69126;SDS011;56688;50.234;19.292;2022-11-14T01:25:49;46.40;;;21.00;;
69126;SDS011;56688;50.234;19.292;2022-11-14T01:28:32;50.10;;;22.30;;
69126;SDS011;56688;50.234;19.292;2022-11-14T01:31:16;47.00;;;21.20;;
69126;SDS011;56688;50.234;19.292;2022-11-14T01:34:00;47.50;;;22.70;;
69126;SDS011;56688;50.234;19.292;2022-11-14T01:36:42;45.10;;;21.20;;
69126;SDS011;56688;50.234;19.292;2022-11-14T01:39:25;42.80;;;19.20;;
69126;SDS011;56688;50.234;19.292;2022-11-14T01:42:08;41.50;;;19.30;;
69126;SDS011;56688;50.234;19.292;2022-11-14T01:44:51;46.60;;;21.70;;
69126;SDS011;56688;50.234;19.292;2022-11-14T01:47:34;35.50;;;16.00;;
69126;SDS011;56688;50.234;19.292;2022-11-14T01:50:16;34.70;;;18.10;;
69126;SDS011;56688;50.234;19.292;2022-11-14T01:52:58;36.20;;;17.00;;
69126;SDS011;56688;50.234;19.292;2022-11-14T01:55:41;35.80;;;16.80;;
69126;SDS011;56688;50.234;19.292;2022-11-14T01:58:24;44.80;;;21.50;;
69126;SDS011;56688;50.234;19.292;2022-11-14T02:01:09;41.20;;;19.70;;
69126;SDS011;56688;50.234;19.292;2022-11-14T02:03:52;40.50;;;17.70;;
69126;SDS011;56688;50.234;19.292;2022-11-14T02:06:36;42.20;;;20.10;;
69126;SDS011;56688;50.234;19.292;2022-11-14T02:09:20;43.30;;;20.30;;
69126;SDS011;56688;50.234;19.292;2022-11-14T02:12:03;33.40;;;16.80;;
69126;SDS011;56688;50.234;19.292;2022-11-14T02:14:49;40.40;;;19.30;;
69126;SDS011;56688;50.234;19.292;2022-11-14T02:17:36;44.70;;;19.40;;
69126;SDS011;56688;50.234;19.292;2022-11-14T02:20:20;45.50;;;21.00;;
69126;SDS011;56688;50.234;19.292;2022-11-14T02:23:03;45.00;;;19.90;;
69126;SDS011;56688;50.234;19.292;2022-11-14T02:25:45;43.10;;;21.00;;
69126;SDS011;56688;50.234;19.292;2022-11-14T02:28:28;42.40;;;20.00;;
69126;SDS011;56688;50.234;19.292;2022-11-14T02:31:11;41.00;;;19.30;;
69126;SDS011;56688;50.234;19.292;2022-11-14T02:33:54;38.50;;;18.20;;
69126;SDS011;56688;50.234;19.292;2022-11-14T02:36:37;41.00;;;18.90;;
69126;SDS011;56688;50.234;19.292;2022-11-14T02:39:19;40.60;;;17.70;;
69126;SDS011;56688;50.234;19.292;2022-11-14T02:42:01;41.40;;;19.50;;
69126;SDS011;56688;50.234;19.292;2022-11-14T02:44:43;35.20;;;18.00;;
69126;SDS011;56688;50.234;19.292;2022-11-14T02:47:26;37.00;;;18.70;;
69126;SDS011;56688;50.234;19.292;2022-11-14T02:50:08;38.10;;;18.20;;
69126;SDS011;56688;50.234;19.292;2022-11-14T02:52:51;40.30;;;18.90;;
69126;SDS011;56688;50.234;19.292;2022-11-14T02:55:35;41.50;;;19.70;;
69126;SDS011;56688;50.234;19.292;2022-11-14T02:58:17;43.10;;;18.90;;
69126;SDS011;56688;50.234;19.292;2022-11-14T03:00:59;44.00;;;20.10;;
69126;SDS011;56688;50.234;19.292;2022-11-14T03:04:01;42.70;;;19.20;;
69126;SDS011;56688;50.234;19.292;2022-11-14T03:06:43;37.30;;;18.30;;
69126;SDS011;56688;50.234;19.292;2022-11-14T03:09:26;37.80;;;16.90;;
69126;SDS011;56688;50.234;19.292;2022-11-14T03:12:08;40.40;;;18.70;;
69126;SDS011;56688;50.234;19.292;2022-11-14T03:14:50;37.00;;;18.50;;
69126;SDS011;56688;50.234;19.292;2022-11-14T03:17:33;35.90;;;17.90;;
69126;SDS011;56688;50.234;19.292;2022-11-14T03:20:16;33.50;;;17.50;;
69126;SDS011;56688;50.234;19.292;2022-11-14T03:22:59;22.90;;;12.20;;
69126;SDS011;56688;50.234;19.292;2022-11-14T03:25:41;36.80;;;18.30;;
69126;SDS011;56688;50.234;19.292;2022-11-14T03:28:23;35.50;;;17.30;;
69126;SDS011;56688;50.234;19.292;2022-11-14T03:31:06;32.60;;;16.30;;
69126;SDS011;56688;50.234;19.292;2022-11-14T03:33:49;35.40;;;17.10;;
69126;SDS011;56688;50.234;19.292;2022-11-14T03:36:32;33.80;;;17.50;;
69126;SDS011;56688;50.234;19.292;2022-11-14T03:39:15;30.20;;;15.80;;
69126;SDS011;56688;50.234;19.292;2022-11-14T03:41:57;34.50;;;17.30;;
69126;SDS011;56688;50.234;19.292;2022-11-14T03:44:40;31.20;;;15.50;;
69126;SDS011;56688;50.234;19.292;2022-11-14T03:47:23;32.90;;;16.50;;
69126;SDS011;56688;50.234;19.292;2022-11-14T03:50:05;33.30;;;15.60;;
69126;SDS011;56688;50.234;19.292;2022-11-14T03:52:48;32.00;;;16.20;;
69126;SDS011;56688;50.234;19.292;2022-11-14T03:55:31;33.90;;;16.40;;
69126;SDS011;56688;50.234;19.292;2022-11-14T03:58:13;34.20;;;16.30;;
69126;SDS011;56688;50.234;19.292;2022-11-14T04:00:56;35.40;;;16.50;;
69126;SDS011;56688;50.234;19.292;2022-11-14T04:03:38;30.90;;;15.10;;
69126;SDS011;56688;50.234;19.292;2022-11-14T04:06:21;29.30;;;15.20;;
69126;SDS011;56688;50.234;19.292;2022-11-14T04:09:03;32.30;;;16.70;;
69126;SDS011;56688;50.234;19.292;2022-11-14T04:11:45;36.20;;;16.90;;
69126;SDS011;56688;50.234;19.292;2022-11-14T04:14:28;35.70;;;16.50;;
69126;SDS011;56688;50.234;19.292;2022-11-14T04:17:10;34.00;;;16.20;;
69126;SDS011;56688;50.234;19.292;2022-11-14T04:19:52;37.30;;;17.60;;
69126;SDS011;56688;50.234;19.292;2022-11-14T04:22:34;35.90;;;17.00;;
69126;SDS011;56688;50.234;19.292;2022-11-14T04:25:17;35.90;;;16.50;;
69126;SDS011;56688;50.234;19.292;2022-11-14T04:27:59;28.00;;;14.40;;
69126;SDS011;56688;50.234;19.292;2022-11-14T04:30:42;29.70;;;15.90;;
69126;SDS011;56688;50.234;19.292;2022-11-14T04:33:26;30.30;;;14.70;;
69126;SDS011;56688;50.234;19.292;2022-11-14T04:36:08;31.70;;;13.80;;
69126;SDS011;56688;50.234;19.292;2022-11-14T04:38:51;21.70;;;10.80;;
69126;SDS011;56688;50.234;19.292;2022-11-14T04:41:33;25.00;;;11.90;;
69126;SDS011;56688;50.234;19.292;2022-11-14T04:44:15;25.20;;;12.10;;
69126;SDS011;56688;50.234;19.292;2022-11-14T04:46:58;26.80;;;12.30;;
69126;SDS011;56688;50.234;19.292;2022-11-14T04:49:40;22.30;;;10.20;;
69126;SDS011;56688;50.234;19.292;2022-11-14T04:52:22;19.80;;;9.50;;
69126;SDS011;56688;50.234;19.292;2022-11-14T04:55:04;26.90;;;12.50;;
69126;SDS011;56688;50.234;19.292;2022-11-14T04:57:47;23.90;;;12.00;;
69126;SDS011;56688;50.234;19.292;2022-11-14T05:00:36;25.70;;;12.00;;
69126;SDS011;56688;50.234;19.292;2022-11-14T05:03:18;20.50;;;11.00;;
69126;SDS011;56688;50.234;19.292;2022-11-14T05:06:00;21.70;;;11.40;;
69126;SDS011;56688;50.234;19.292;2022-11-14T05:08:43;21.10;;;11.00;;
69126;SDS011;56688;50.234;19.292;2022-11-14T05:11:26;24.70;;;11.30;;
69126;SDS011;56688;50.234;19.292;2022-11-14T05:14:10;22.60;;;10.70;;
69126;SDS011;56688;50.234;19.292;2022-11-14T05:16:52;20.40;;;10.70;;
69126;SDS011;56688;50.234;19.292;2022-11-14T05:19:35;23.30;;;11.40;;
69126;SDS011;56688;50.234;19.292;2022-11-14T05:22:17;24.00;;;11.50;;
69126;SDS011;56688;50.234;19.292;2022-11-14T05:24:59;18.00;;;10.20;;
69126;SDS011;56688;50.234;19.292;2022-11-14T05:27:41;20.50;;;10.50;;
69126;SDS011;56688;50.234;19.292;2022-11-14T05:30:24;19.90;;;10.60;;
69126;SDS011;56688;50.234;19.292;2022-11-14T05:33:06;21.30;;;11.00;;
69126;SDS011;56688;50.234;19.292;2022-11-14T05:35:49;20.90;;;10.80;;
69126;SDS011;56688;50.234;19.292;2022-11-14T05:38:32;19.50;;;10.80;;
69126;SDS011;56688;50.234;19.292;2022-11-14T05:41:15;21.70;;;11.20;;
69126;SDS011;56688;50.234;19.292;2022-11-14T05:44:02;19.10;;;9.30;;
69126;SDS011;56688;50.234;19.292;2022-11-14T05:46:45;20.90;;;10.60;;
69126;SDS011;56688;50.234;19.292;2022-11-14T05:49:28;19.50;;;10.00;;
69126;SDS011;56688;50.234;19.292;2022-11-14T05:52:10;20.10;;;10.70;;
69126;SDS011;56688;50.234;19.292;2022-11-14T05:54:52;17.90;;;9.70;;
69126;SDS011;56688;50.234;19.292;2022-11-14T05:57:34;18.50;;;9.90;;
69126;SDS011;56688;50.234;19.292;2022-11-14T06:00:17;18.30;;;10.10;;
69126;SDS011;56688;50.234;19.292;2022-11-14T06:02:59;21.60;;;10.90;;
69126;SDS011;56688;50.234;19.292;2022-11-14T06:05:41;17.60;;;9.20;;
69126;SDS011;56688;50.234;19.292;2022-11-14T06:08:24;14.80;;;9.00;;
69126;SDS011;56688;50.234;19.292;2022-11-14T06:11:07;16.00;;;9.10;;
69126;SDS011;56688;50.234;19.292;2022-11-14T06:13:51;17.40;;;10.00;;
69126;SDS011;56688;50.234;19.292;2022-11-14T06:16:33;16.60;;;8.80;;
69126;SDS011;56688;50.234;19.292;2022-11-14T06:19:15;13.10;;;7.90;;
69126;SDS011;56688;50.234;19.292;2022-11-14T06:21:58;12.60;;;7.30;;
69126;SDS011;56688;50.234;19.292;2022-11-14T06:24:40;15.60;;;8.50;;
69126;SDS011;56688;50.234;19.292;2022-11-14T06:27:22;16.50;;;8.70;;
69126;SDS011;56688;50.234;19.292;2022-11-14T06:30:05;15.90;;;9.20;;
69126;SDS011;56688;50.234;19.292;2022-11-14T06:32:47;12.70;;;8.10;;
69126;SDS011;56688;50.234;19.292;2022-11-14T06:35:30;16.40;;;9.00;;
69126;SDS011;56688;50.234;19.292;2022-11-14T06:38:14;18.00;;;10.40;;
69126;SDS011;56688;50.234;19.292;2022-11-14T06:41:04;17.40;;;9.00;;
69126;SDS011;56688;50.234;19.292;2022-11-14T06:43:48;16.30;;;8.80;;
69126;SDS011;56688;50.234;19.292;2022-11-14T06:46:31;15.70;;;9.00;;
69126;SDS011;56688;50.234;19.292;2022-11-14T06:49:13;18.30;;;8.90;;
69126;SDS011;56688;50.234;19.292;2022-11-14T06:51:56;14.50;;;8.60;;
69126;SDS011;56688;50.234;19.292;2022-11-14T06:54:38;18.00;;;10.20;;
69126;SDS011;56688;50.234;19.292;2022-11-14T06:57:20;14.50;;;7.50;;
69126;SDS011;56688;50.234;19.292;2022-11-14T07:00:02;14.60;;;8.60;;
69126;SDS011;56688;50.234;19.292;2022-11-14T07:02:47;14.40;;;8.80;;
69126;SDS011;56688;50.234;19.292;2022-11-14T07:05:30;10.00;;;6.10;;
69126;SDS011;56688;50.234;19.292;2022-11-14T07:08:12;14.90;;;9.20;;
69126;SDS011;56688;50.234;19.292;2022-11-14T07:11:09;16.20;;;9.30;;
69126;SDS011;56688;50.234;19.292;2022-11-14T07:16:39;17.40;;;9.20;;
69126;SDS011;56688;50.234;19.292;2022-11-14T07:19:21;22.60;;;10.90;;
69126;SDS011;56688;50.234;19.292;2022-11-14T07:22:03;13.10;;;8.00;;
69126;SDS011;56688;50.234;19.292;2022-11-14T07:24:46;14.80;;;8.90;;
69126;SDS011;56688;50.234;19.292;2022-11-14T07:27:28;16.20;;;9.50;;
69126;SDS011;56688;50.234;19.292;2022-11-14T07:30:10;14.60;;;8.50;;
69126;SDS011;56688;50.234;19.292;2022-11-14T07:32:56;14.90;;;8.50;;
69126;SDS011;56688;50.234;19.292;2022-11-14T07:35:39;14.00;;;8.10;;
69126;SDS011;56688;50.234;19.292;2022-11-14T07:38:21;13.30;;;8.20;;
69126;SDS011;56688;50.234;19.292;2022-11-14T07:41:05;14.50;;;8.50;;
69126;SDS011;56688;50.234;19.292;2022-11-14T07:43:49;8.30;;;4.90;;
69126;SDS011;56688;50.234;19.292;2022-11-14T07:46:31;13.30;;;8.90;;
69126;SDS011;56688;50.234;19.292;2022-11-14T07:49:13;14.50;;;8.30;;
69126;SDS011;56688;50.234;19.292;2022-11-14T07:51:56;13.70;;;8.60;;
69126;SDS011;56688;50.234;19.292;2022-11-14T07:54:38;17.70;;;9.50;;
69126;SDS011;56688;50.234;19.292;2022-11-14T07:57:20;15.90;;;8.80;;
69126;SDS011;56688;50.234;19.292;2022-11-14T08:00:03;14.70;;;8.10;;
69126;SDS011;56688;50.234;19.292;2022-11-14T08:02:45;17.00;;;9.60;;
69126;SDS011;56688;50.234;19.292;2022-11-14T08:05:28;15.00;;;8.90;;
69126;SDS011;56688;50.234;19.292;2022-11-14T08:08:10;17.60;;;9.60;;
69126;SDS011;56688;50.234;19.292;2022-11-14T08:10:55;15.60;;;9.30;;
69126;SDS011;56688;50.234;19.292;2022-11-14T08:13:38;16.50;;;9.40;;
69126;SDS011;56688;50.234;19.292;2022-11-14T08:16:20;18.20;;;11.10;;
69126;SDS011;56688;50.234;19.292;2022-11-14T08:19:03;16.50;;;9.50;;
69126;SDS011;56688;50.234;19.292;2022-11-14T08:21:45;16.40;;;9.50;;
69126;SDS011;56688;50.234;19.292;2022-11-14T08:24:28;19.90;;;10.70;;
69126;SDS011;56688;50.234;19.292;2022-11-14T08:27:10;17.20;;;10.50;;
69126;SDS011;56688;50.234;19.292;2022-11-14T08:29:52;16.60;;;10.10;;
69126;SDS011;56688;50.234;19.292;2022-11-14T08:32:35;22.10;;;11.30;;
69126;SDS011;56688;50.234;19.292;2022-11-14T08:35:17;18.60;;;10.80;;
69126;SDS011;56688;50.234;19.292;2022-11-14T08:38:00;14.70;;;8.00;;
69126;SDS011;56688;50.234;19.292;2022-11-14T08:40:43;15.30;;;9.30;;
69126;SDS011;56688;50.234;19.292;2022-11-14T08:43:25;16.60;;;10.00;;
69126;SDS011;56688;50.234;19.292;2022-11-14T08:46:08;20.70;;;11.30;;
69126;SDS011;56688;50.234;19.292;2022-11-14T08:48:50;20.90;;;10.90;;
69126;SDS011;56688;50.234;19.292;2022-11-14T08:51:33;15.90;;;9.70;;
69126;SDS011;56688;50.234;19.292;2022-11-14T08:54:17;15.40;;;8.80;;
69126;SDS011;56688;50.234;19.292;2022-11-14T08:57:00;17.60;;;9.70;;
69126;SDS011;56688;50.234;19.292;2022-11-14T08:59:42;17.10;;;10.70;;
69126;SDS011;56688;50.234;19.292;2022-11-14T09:02:24;17.10;;;9.90;;
69126;SDS011;56688;50.234;19.292;2022-11-14T09:05:07;19.10;;;10.80;;
69126;SDS011;56688;50.234;19.292;2022-11-14T09:07:49;21.90;;;11.20;;
69126;SDS011;56688;50.234;19.292;2022-11-14T09:10:32;18.60;;;10.70;;
69126;SDS011;56688;50.234;19.292;2022-11-14T09:13:15;12.60;;;7.70;;
69126;SDS011;56688;50.234;19.292;2022-11-14T09:15:57;15.40;;;8.80;;
69126;SDS011;56688;50.234;19.292;2022-11-14T09:18:40;15.30;;;9.10;;
69126;SDS011;56688;50.234;19.292;2022-11-14T09:21:22;18.90;;;11.60;;
69126;SDS011;56688;50.234;19.292;2022-11-14T09:24:04;19.80;;;11.10;;
69126;SDS011;56688;50.234;19.292;2022-11-14T09:26:49;16.90;;;10.90;;
69126;SDS011;56688;50.234;19.292;2022-11-14T09:29:38;20.30;;;11.30;;
69126;SDS011;56688;50.234;19.292;2022-11-14T09:32:20;15.80;;;9.20;;
69126;SDS011;56688;50.234;19.292;2022-11-14T09:35:02;20.30;;;12.20;;
69126;SDS011;56688;50.234;19.292;2022-11-14T09:37:45;18.80;;;11.90;;
69126;SDS011;56688;50.234;19.292;2022-11-14T09:40:27;20.30;;;12.60;;
69126;SDS011;56688;50.234;19.292;2022-11-14T09:43:17;18.80;;;11.70;;
69126;SDS011;56688;50.234;19.292;2022-11-14T09:46:09;19.30;;;11.40;;
69126;SDS011;56688;50.234;19.292;2022-11-14T09:48:58;20.10;;;11.80;;
69126;SDS011;56688;50.234;19.292;2022-11-14T09:51:46;16.20;;;9.30;;
69126;SDS011;56688;50.234;19.292;2022-11-14T09:57:34;20.30;;;12.20;;
69126;SDS011;56688;50.234;19.292;2022-11-14T10:00:17;16.30;;;9.80;;
69126;SDS011;56688;50.234;19.292;2022-11-14T10:03:06;16.00;;;10.70;;
69126;SDS011;56688;50.234;19.292;2022-11-14T10:26:58;17.80;;;10.90;;
69126;SDS011;56688;50.234;19.292;2022-11-14T10:29:49;18.60;;;11.80;;
69126;SDS011;56688;50.234;19.292;2022-11-14T10:32:46;20.10;;;12.00;;
69126;SDS011;56688;50.234;19.292;2022-11-14T10:35:41;20.20;;;12.30;;
69126;SDS011;56688;50.234;19.292;2022-11-14T10:38:32;19.20;;;12.40;;
69126;SDS011;56688;50.234;19.292;2022-11-14T10:41:19;14.00;;;8.20;;
69126;SDS011;56688;50.234;19.292;2022-11-14T10:44:28;18.20;;;10.40;;
69126;SDS011;56688;50.234;19.292;2022-11-14T10:47:14;11.20;;;6.90;;
69126;SDS011;56688;50.234;19.292;2022-11-14T10:50:08;19.50;;;12.00;;
69126;SDS011;56688;50.234;19.292;2022-11-14T10:52:57;23.90;;;13.00;;
69126;SDS011;56688;50.234;19.292;2022-11-14T10:55:43;18.70;;;11.10;;
69126;SDS011;56688;50.234;19.292;2022-11-14T10:58:45;15.30;;;10.00;;
69126;SDS011;56688;50.234;19.292;2022-11-14T11:01:30;17.50;;;11.60;;
69126;SDS011;56688;50.234;19.292;2022-11-14T11:07:19;20.50;;;12.60;;
69126;SDS011;56688;50.234;19.292;2022-11-14T11:10:21;22.50;;;13.30;;
69126;SDS011;56688;50.234;19.292;2022-11-14T11:13:29;21.90;;;13.60;;
69126;SDS011;56688;50.234;19.292;2022-11-14T11:16:13;21.80;;;13.60;;
69126;SDS011;56688;50.234;19.292;2022-11-14T11:22:22;22.00;;;13.40;;
69126;SDS011;56688;50.234;19.292;2022-11-14T11:28:15;21.60;;;13.50;;
69126;SDS011;56688;50.234;19.292;2022-11-14T11:31:02;20.80;;;13.90;;
69126;SDS011;56688;50.234;19.292;2022-11-14T11:33:47;21.20;;;13.90;;
69126;SDS011;56688;50.234;19.292;2022-11-14T11:36:30;17.60;;;12.00;;
69126;SDS011;56688;50.234;19.292;2022-11-14T11:39:25;21.70;;;14.40;;
69126;SDS011;56688;50.234;19.292;2022-11-14T11:42:13;19.50;;;12.80;;
69126;SDS011;56688;50.234;19.292;2022-11-14T11:45:01;20.00;;;12.50;;
69126;SDS011;56688;50.234;19.292;2022-11-14T11:47:53;16.50;;;10.80;;
69126;SDS011;56688;50.234;19.292;2022-11-14T11:50:39;20.10;;;11.40;;
69126;SDS011;56688;50.234;19.292;2022-11-14T11:56:11;16.60;;;11.00;;
69126;SDS011;56688;50.234;19.292;2022-11-14T12:02:12;20.30;;;12.00;;
69126;SDS011;56688;50.234;19.292;2022-11-14T12:05:03;16.10;;;10.90;;
69126;SDS011;56688;50.234;19.292;2022-11-14T12:07:49;14.10;;;9.80;;
69126;SDS011;56688;50.234;19.292;2022-11-14T12:10:40;14.50;;;10.60;;
69126;SDS011;56688;50.234;19.292;2022-11-14T12:22:39;12.90;;;9.10;;
69126;SDS011;56688;50.234;19.292;2022-11-14T12:31:40;13.40;;;9.70;;
69126;SDS011;56688;50.234;19.292;2022-11-14T12:34:24;12.30;;;10.60;;
69126;SDS011;56688;50.234;19.292;2022-11-14T12:37:14;15.60;;;12.20;;
69126;SDS011;56688;50.234;19.292;2022-11-14T12:40:05;12.10;;;10.00;;
69126;SDS011;56688;50.234;19.292;2022-11-14T12:43:00;13.00;;;10.10;;
69126;SDS011;56688;50.234;19.292;2022-11-14T12:51:47;14.10;;;10.50;;
69126;SDS011;56688;50.234;19.292;2022-11-14T12:57:26;15.60;;;11.60;;
69126;SDS011;56688;50.234;19.292;2022-11-14T13:00:34;16.20;;;11.70;;
69126;SDS011;56688;50.234;19.292;2022-11-14T13:06:08;13.70;;;11.00;;
69126;SDS011;56688;50.234;19.292;2022-11-14T13:11:56;14.60;;;11.20;;
69126;SDS011;56688;50.234;19.292;2022-11-14T13:14:54;14.00;;;10.50;;
69126;SDS011;56688;50.234;19.292;2022-11-14T13:18:02;16.50;;;12.10;;
69126;SDS011;56688;50.234;19.292;2022-11-14T13:24:25;16.90;;;11.40;;
69126;SDS011;56688;50.234;19.292;2022-11-14T13:27:28;14.00;;;10.00;;
69126;SDS011;56688;50.234;19.292;2022-11-14T13:33:44;15.80;;;11.20;;
69126;SDS011;56688;50.234;19.292;2022-11-14T13:48:21;19.20;;;13.20;;
69126;SDS011;56688;50.234;19.292;2022-11-14T13:51:09;17.60;;;12.00;;
69126;SDS011;56688;50.234;19.292;2022-11-14T13:54:15;16.10;;;12.10;;
69126;SDS011;56688;50.234;19.292;2022-11-14T14:00:14;17.50;;;12.60;;
69126;SDS011;56688;50.234;19.292;2022-11-14T14:15:06;22.50;;;14.60;;
69126;SDS011;56688;50.234;19.292;2022-11-14T14:17:54;23.90;;;14.80;;
69126;SDS011;56688;50.234;19.292;2022-11-14T14:20:47;24.30;;;14.70;;
69126;SDS011;56688;50.234;19.292;2022-11-14T14:23:48;24.60;;;15.40;;
69126;SDS011;56688;50.234;19.292;2022-11-14T14:29:21;24.60;;;14.90;;
69126;SDS011;56688;50.234;19.292;2022-11-14T14:32:10;26.80;;;15.80;;
69126;SDS011;56688;50.234;19.292;2022-11-14T14:34:55;27.60;;;15.30;;
69126;SDS011;56688;50.234;19.292;2022-11-14T14:37:48;19.90;;;11.40;;
69126;SDS011;56688;50.234;19.292;2022-11-14T14:40:32;23.50;;;12.80;;
69126;SDS011;56688;50.234;19.292;2022-11-14T14:43:22;27.70;;;15.80;;
69126;SDS011;56688;50.234;19.292;2022-11-14T14:46:09;26.50;;;16.00;;
69126;SDS011;56688;50.234;19.292;2022-11-14T14:48:52;28.40;;;16.30;;
69126;SDS011;56688;50.234;19.292;2022-11-14T14:51:35;28.90;;;16.30;;
69126;SDS011;56688;50.234;19.292;2022-11-14T14:54:20;23.40;;;13.40;;
69126;SDS011;56688;50.234;19.292;2022-11-14T14:57:14;29.00;;;15.70;;
69126;SDS011;56688;50.234;19.292;2022-11-14T15:00:05;27.50;;;16.30;;
69126;SDS011;56688;50.234;19.292;2022-11-14T15:02:57;31.50;;;15.60;;
69126;SDS011;56688;50.234;19.292;2022-11-14T15:05:40;28.00;;;15.60;;
69126;SDS011;56688;50.234;19.292;2022-11-14T15:08:22;29.60;;;16.60;;
69126;SDS011;56688;50.234;19.292;2022-11-14T15:11:04;34.10;;;17.60;;
69126;SDS011;56688;50.234;19.292;2022-11-14T15:13:52;35.70;;;18.00;;
69126;SDS011;56688;50.234;19.292;2022-11-14T15:16:37;35.40;;;18.00;;
69126;SDS011;56688;50.234;19.292;2022-11-14T15:19:21;34.10;;;18.80;;
69126;SDS011;56688;50.234;19.292;2022-11-14T15:27:53;35.30;;;18.00;;
69126;SDS011;56688;50.234;19.292;2022-11-14T15:30:36;33.70;;;17.40;;
69126;SDS011;56688;50.234;19.292;2022-11-14T15:33:25;36.00;;;18.70;;
69126;SDS011;56688;50.234;19.292;2022-11-14T15:41:42;30.60;;;14.70;;
69126;SDS011;56688;50.234;19.292;2022-11-14T15:44:32;33.00;;;16.70;;
69126;SDS011;56688;50.234;19.292;2022-11-14T15:47:17;33.90;;;17.80;;
69126;SDS011;56688;50.234;19.292;2022-11-14T15:50:24;33.00;;;17.70;;
69126;SDS011;56688;50.234;19.292;2022-11-14T15:56:04;31.70;;;16.50;;
69126;SDS011;56688;50.234;19.292;2022-11-14T15:58:46;37.10;;;18.00;;
69126;SDS011;56688;50.234;19.292;2022-11-14T16:01:30;31.30;;;17.40;;
69126;SDS011;56688;50.234;19.292;2022-11-14T16:04:14;29.90;;;16.90;;
69126;SDS011;56688;50.234;19.292;2022-11-14T16:06:59;36.10;;;18.30;;
69126;SDS011;56688;50.234;19.292;2022-11-14T16:09:41;36.10;;;17.30;;
69126;SDS011;56688;50.234;19.292;2022-11-14T16:15:22;39.00;;;18.90;;
69126;SDS011;56688;50.234;19.292;2022-11-14T16:18:04;39.00;;;19.10;;
69126;SDS011;56688;50.234;19.292;2022-11-14T16:20:47;27.10;;;15.50;;
69126;SDS011;56688;50.234;19.292;2022-11-14T16:23:30;35.30;;;18.40;;
69126;SDS011;56688;50.234;19.292;2022-11-14T16:26:12;32.90;;;17.90;;
69126;SDS011;56688;50.234;19.292;2022-11-14T16:28:54;41.40;;;21.20;;
69126;SDS011;56688;50.234;19.292;2022-11-14T16:31:38;42.50;;;20.00;;
69126;SDS011;56688;50.234;19.292;2022-11-14T16:34:21;40.00;;;19.90;;
69126;SDS011;56688;50.234;19.292;2022-11-14T16:37:08;40.00;;;20.50;;
69126;SDS011;56688;50.234;19.292;2022-11-14T16:39:53;36.20;;;18.00;;
69126;SDS011;56688;50.234;19.292;2022-11-14T16:42:36;39.80;;;19.80;;
69126;SDS011;56688;50.234;19.292;2022-11-14T16:45:18;39.40;;;20.20;;
69126;SDS011;56688;50.234;19.292;2022-11-14T16:48:01;42.50;;;21.60;;
69126;SDS011;56688;50.234;19.292;2022-11-14T16:50:44;52.90;;;22.40;;
69126;SDS011;56688;50.234;19.292;2022-11-14T16:53:26;45.70;;;22.10;;
69126;SDS011;56688;50.234;19.292;2022-11-14T16:56:09;46.30;;;23.10;;
69126;SDS011;56688;50.234;19.292;2022-11-14T17:01:36;43.90;;;21.70;;
69126;SDS011;56688;50.234;19.292;2022-11-14T17:04:19;49.70;;;22.30;;
69126;SDS011;56688;50.234;19.292;2022-11-14T17:07:02;45.50;;;22.50;;
69126;SDS011;56688;50.234;19.292;2022-11-14T17:09:44;44.60;;;22.50;;
69126;SDS011;56688;50.234;19.292;2022-11-14T17:12:27;48.70;;;22.80;;
69126;SDS011;56688;50.234;19.292;2022-11-14T17:15:09;50.30;;;23.80;;
69126;SDS011;56688;50.234;19.292;2022-11-14T17:17:52;47.30;;;22.70;;
69126;SDS011;56688;50.234;19.292;2022-11-14T17:20:36;44.80;;;22.70;;
69126;SDS011;56688;50.234;19.292;2022-11-14T17:23:19;48.00;;;22.90;;
69126;SDS011;56688;50.234;19.292;2022-11-14T17:26:03;38.10;;;19.00;;
69126;SDS011;56688;50.234;19.292;2022-11-14T17:28:47;40.40;;;20.80;;
69126;SDS011;56688;50.234;19.292;2022-11-14T17:31:30;49.30;;;24.10;;
69126;SDS011;56688;50.234;19.292;2022-11-14T17:34:19;50.00;;;22.50;;
69126;SDS011;56688;50.234;19.292;2022-11-14T17:37:01;37.10;;;17.90;;
69126;SDS011;56688;50.234;19.292;2022-11-14T17:39:43;40.00;;;21.10;;
69126;SDS011;56688;50.234;19.292;2022-11-14T17:42:26;39.30;;;18.80;;
69126;SDS011;56688;50.234;19.292;2022-11-14T17:45:08;41.40;;;18.80;;
69126;SDS011;56688;50.234;19.292;2022-11-14T17:47:51;39.80;;;17.90;;
69126;SDS011;56688;50.234;19.292;2022-11-14T17:50:36;44.30;;;21.30;;
69126;SDS011;56688;50.234;19.292;2022-11-14T17:53:20;55.10;;;24.80;;
69126;SDS011;56688;50.234;19.292;2022-11-14T17:56:03;191.80;;;95.00;;
69126;SDS011;56688;50.234;19.292;2022-11-14T17:58:47;53.30;;;26.70;;
69126;SDS011;56688;50.234;19.292;2022-11-14T18:01:30;61.60;;;28.80;;